This is the latest recevied weather packets stored in our database for station/object KO5MO-3. If no packets are shown the sender has not sent any weather packets the latest 10 day(s).
| Time | Temp. | Humidity | Pressure | Rain* | Wind** | Luminosity | Snow |
|---|---|---|---|---|---|---|---|
| 1777384284 | 17.78° C | 44% | 1013.1 hPa | 0 mm | - | - | - |
| 1777383984 | 16.67° C | 46% | 1013.1 hPa | 0 mm | - | - | - |
| 1777383684 | 16.11° C | 47% | 1013.1 hPa | 0 mm | - | - | - |
| 1777383384 | 16.67° C | 45% | 1013 hPa | 0 mm | - | - | - |
| 1777383084 | 16.67° C | 45% | 1012.9 hPa | 0 mm | - | - | - |
| 1777382784 | 15.56° C | 47% | 1012.8 hPa | 0 mm | - | - | - |
| 1777382484 | 15° C | 47% | 1012.7 hPa | 0 mm | - | - | - |
| 1777382184 | 15° C | 47% | 1012.6 hPa | 0 mm | - | - | - |
| 1777381884 | 13.89° C | 49% | 1012.6 hPa | 0 mm | - | - | - |
| 1777381584 | 13.89° C | 51% | 1012.6 hPa | 0 mm | - | - | - |
| 1777381284 | 12.78° C | 53% | 1012.4 hPa | 0 mm | - | - | - |
| 1777380984 | 12.22° C | 52% | 1012.3 hPa | 0 mm | - | - | - |
| 1777380684 | 12.22° C | 53% | 1012.3 hPa | 0 mm | - | - | - |
| 1777380384 | 12.22° C | 54% | 1012.2 hPa | 0 mm | - | - | - |
| 1777380084 | 12.22° C | 52% | 1012.1 hPa | 0 mm | - | - | - |
| 1777379784 | 12.22° C | 51% | 1012 hPa | 0 mm | - | - | - |
| 1777379484 | 12.22° C | 52% | 1011.9 hPa | 0 mm | - | - | - |
| 1777379184 | 12.22° C | 52% | 1011.9 hPa | 0 mm | - | - | - |
| 1777378884 | 13.33° C | 49% | 1011.8 hPa | 0 mm | - | - | - |
| 1777378584 | 13.33° C | 48% | 1011.7 hPa | 0 mm | - | - | - |
| 1777378284 | 12.78° C | 49% | 1011.6 hPa | 0 mm | - | - | - |
| 1777377984 | 12.78° C | 50% | 1011.6 hPa | 0 mm | - | - | - |
| 1777377684 | 12.78° C | 50% | 1011.7 hPa | 0 mm | - | - | - |
| 1777377384 | 12.78° C | 49% | 1011.6 hPa | 0 mm | - | - | - |
| 1777377084 | 12.78° C | 49% | 1011.6 hPa | 0 mm | - | - | - |
* Rain latest hour (hover to see other rain measurements)
** Current wind speed in m/s (hover to see current wind gust speed)